Time;durP1;ratioP1;P1;durP2;ratioP2;P2;SDS_P1;SDS_P2;PMS_P1;PMS_P2;Temp;Humidity;BMP_temperature;BMP_pressure;BME280_temperature;BME280_humidity;BME280_pressure;Samples;Min_cycle;Max_cycle;Signal;HPM_P1;HPM_P2
2022/05/21 00:02:07;;;;;;;10.60;6.80;;;;;;;11.78;80.50;99411.77;1812381;79;21048;-70
2022/05/21 00:04:41;;;;;;;13.80;6.53;;;;;;;11.72;80.31;99414.28;1811858;79;21065;-69
2022/05/21 00:07:07;;;;;;;12.58;6.95;;;;;;;11.68;80.15;99413.59;1811977;79;21596;-70
2022/05/21 00:09:33;;;;;;;11.43;6.42;;;;;;;11.66;80.54;99406.22;1811849;79;21557;-69
2022/05/21 00:12:00;;;;;;;9.95;6.05;;;;;;;11.66;80.48;99411.97;1811964;79;21029;-69
2022/05/21 00:14:27;;;;;;;13.58;6.80;;;;;;;11.64;80.59;99412.06;1812073;79;21108;-69
2022/05/21 00:16:54;;;;;;;10.30;6.85;;;;;;;11.64;81.00;99413.83;1811859;79;21073;-70
2022/05/21 00:19:20;;;;;;;15.18;6.55;;;;;;;11.62;81.13;99415.69;1811826;79;21281;-69
2022/05/21 00:21:47;;;;;;;19.00;6.67;;;;;;;11.61;81.49;99415.31;1811916;79;21070;-69
2022/05/21 00:24:14;;;;;;;10.93;6.55;;;;;;;11.59;81.27;99411.91;1773740;80;21016;-69
2022/05/21 00:26:42;;;;;;;10.08;6.17;;;;;;;11.57;81.33;99411.12;1773486;80;21036;-70
2022/05/21 00:29:08;;;;;;;16.37;6.78;;;;;;;11.54;82.08;99399.81;1741276;82;21746;-70
2022/05/21 00:31:36;;;;;;;9.73;5.78;;;;;;;11.52;82.22;99402.98;1773367;80;21156;-70
2022/05/21 00:34:03;;;;;;;12.98;6.20;;;;;;;11.50;82.65;99399.61;1741066;82;21050;-69
2022/05/21 00:36:29;;;;;;;11.68;6.30;;;;;;;11.47;82.60;99397.11;1773357;80;21802;-69
2022/05/21 00:38:56;;;;;;;11.90;5.87;;;;;;;11.45;82.52;99400.29;1773180;80;21009;-69
2022/05/21 00:41:23;;;;;;;8.75;6.20;;;;;;;11.42;82.73;99400.94;1775384;79;21041;-69
2022/05/21 00:43:54;;;;;;;8.48;5.75;;;;;;;11.39;82.46;99400.63;1793062;80;21204;-70
2022/05/21 00:46:29;;;;;;;11.88;6.12;;;;;;;11.37;82.58;99396.38;1776850;80;21138;-71
2022/05/21 00:49:15;;;;;;;10.68;6.90;;;;;;;11.36;82.31;99407.83;1792285;78;21040;-69
2022/05/21 00:51:56;;;;;;;14.05;6.83;;;;;;;11.35;83.50;99396.44;1776593;80;21045;-70
2022/05/21 00:54:32;;;;;;;12.20;6.55;;;;;;;11.33;83.84;99395.67;1793455;80;21581;-70
2022/05/21 00:57:08;;;;;;;10.78;6.53;;;;;;;11.33;84.01;99403.58;1792771;79;21548;-73
2022/05/21 00:59:48;;;;;;;10.53;6.28;;;;;;;11.32;84.26;99407.16;1792564;80;21001;-68
2022/05/21 01:02:28;;;;;;;12.88;6.83;;;;;;;11.33;83.96;99400.94;1793060;79;21566;-69
2022/05/21 01:04:56;;;;;;;11.03;7.08;;;;;;;11.33;84.24;99395.67;1776546;80;21036;-71
2022/05/21 01:07:25;;;;;;;13.53;6.67;;;;;;;11.32;84.26;99388.70;1793111;80;21111;-70
2022/05/21 01:09:54;;;;;;;12.47;6.17;;;;;;;11.33;84.04;99396.98;1776701;80;21155;-70
2022/05/21 01:12:25;;;;;;;16.27;6.40;;;;;;;11.35;84.05;99397.77;1776683;80;21553;-68
2022/05/21 01:14:55;;;;;;;10.93;6.17;;;;;;;11.36;84.53;99406.05;1792936;78;21086;-69
2022/05/21 01:17:22;;;;;;;11.05;6.60;;;;;;;11.37;84.96;99410.88;1776736;80;21073;-68
2022/05/21 01:20:00;;;;;;;12.47;6.55;;;;;;;11.35;85.34;99408.30;1776653;80;21109;-69
2022/05/21 01:22:28;;;;;;;15.32;7.15;;;;;;;11.35;85.32;99406.98;1793096;80;21656;-70
2022/05/21 01:24:55;;;;;;;9.78;6.72;;;;;;;11.35;84.98;99404.35;1793162;80;21033;-70
2022/05/21 01:27:23;;;;;;;10.05;6.05;;;;;;;11.36;85.79;99400.77;1776604;80;21091;-69
2022/05/21 01:29:51;;;;;;;8.45;5.28;;;;;;;11.40;86.06;99397.05;1793392;78;21020;-67
2022/05/21 01:32:18;;;;;;;10.68;5.95;;;;;;;11.45;85.92;99397.66;1793117;80;21064;-70
2022/05/21 01:34:45;;;;;;;9.93;5.75;;;;;;;11.51;85.32;99394.70;1792911;79;21286;-69
2022/05/21 01:37:12;;;;;;;11.63;5.83;;;;;;;11.55;85.01;99396.73;1776490;80;21088;-69
2022/05/21 01:39:38;;;;;;;9.60;5.80;;;;;;;11.59;85.33;99400.04;1792899;80;21523;-70
2022/05/21 01:42:07;;;;;;;11.08;5.78;;;;;;;11.64;84.75;99400.64;1776507;80;21584;-69
2022/05/21 01:44:39;;;;;;;9.08;5.53;;;;;;;11.72;85.13;99395.34;1818056;78;21045;-70
2022/05/21 01:47:11;;;;;;;12.95;7.05;;;;;;;11.79;84.76;99391.92;1817688;78;21087;-69
2022/05/21 01:49:38;;;;;;;12.50;5.97;;;;;;;11.84;84.84;99391.20;1817988;78;21557;-68
2022/05/21 01:52:05;;;;;;;7.90;5.75;;;;;;;11.88;85.43;99398.53;1817768;78;21053;-70
2022/05/21 01:54:33;;;;;;;14.40;6.05;;;;;;;11.96;85.54;99393.23;1818060;78;21087;-69
2022/05/21 01:57:02;;;;;;;11.93;6.03;;;;;;;12.07;85.92;99401.85;1817635;78;21049;-69
2022/05/21 01:59:31;;;;;;;14.35;6.33;;;;;;;12.19;85.13;99396.36;1817888;78;21068;-69
2022/05/21 02:01:57;;;;;;;15.88;6.33;;;;;;;12.26;85.17;99387.20;1817481;78;21049;-69
2022/05/21 02:04:24;;;;;;;7.97;5.62;;;;;;;12.32;85.29;99386.83;1817687;78;21103;-69
2022/05/21 02:06:50;;;;;;;13.70;5.97;;;;;;;12.44;87.17;99386.61;1817600;78;21104;-70
2022/05/21 02:09:17;;;;;;;8.83;5.30;;;;;;;12.60;87.58;99369.42;1817812;78;21536;-69
2022/05/21 02:11:45;;;;;;;8.20;4.80;;;;;;;12.83;87.56;99371.20;1817583;78;21145;-69
2022/05/21 02:14:13;;;;;;;9.48;4.92;;;;;;;13.06;86.30;99365.41;1817500;78;21562;-69
2022/05/21 02:16:40;;;;;;;13.62;5.75;;;;;;;13.25;84.87;99370.92;1817560;78;21089;-71
2022/05/21 02:19:08;;;;;;;10.75;5.08;;;;;;;13.40;83.77;99372.68;1818010;78;20970;-69
2022/05/21 02:21:37;;;;;;;7.37;5.10;;;;;;;13.56;83.62;99368.15;1817902;78;20971;-69
2022/05/21 02:24:05;;;;;;;9.63;5.20;;;;;;;13.79;83.45;99375.14;1817968;78;21530;-69
2022/05/21 02:26:36;;;;;;;7.65;4.72;;;;;;;13.98;81.99;99369.06;1817783;78;21022;-70
2022/05/21 02:29:03;;;;;;;9.23;5.25;;;;;;;14.14;80.92;99364.12;1817758;78;21283;-69
2022/05/21 02:31:29;;;;;;;6.62;5.00;;;;;;;14.27;80.84;99355.78;1817190;78;21503;-69
2022/05/21 02:33:57;;;;;;;9.13;4.97;;;;;;;14.45;80.07;99367.83;1817548;78;21021;-69
2022/05/21 02:39:25;;;;;;;6.85;4.75;;;;;;;14.54;79.15;99369.48;1817825;78;21132;-71
2022/05/21 02:41:37;;;;;;;11.97;4.67;;;;;;;14.67;80.17;99365.95;1819088;78;21577;-70
2022/05/21 02:44:04;;;;;;;7.70;4.95;;;;;;;14.77;79.80;99359.59;1820795;78;21544;-70
2022/05/21 02:46:32;;;;;;;15.60;5.35;;;;;;;14.86;80.40;99355.45;1820531;78;21119;-69
2022/05/21 02:48:59;;;;;;;8.75;4.60;;;;;;;14.97;79.88;99357.39;1781770;80;21355;-70
2022/05/21 02:51:25;;;;;;;9.43;4.90;;;;;;;15.05;79.35;99360.39;1781969;80;21053;-70
2022/05/21 02:53:51;;;;;;;13.40;5.33;;;;;;;15.13;78.42;99358.05;1749070;82;21017;-68
2022/05/21 02:56:18;;;;;;;9.68;4.30;;;;;;;15.20;78.47;99351.85;1820574;78;21018;-70
2022/05/21 02:58:44;;;;;;;9.05;4.95;;;;;;;15.27;78.35;99351.31;1820616;78;21068;-68
2022/05/21 03:01:13;;;;;;;12.10;4.60;;;;;;;15.36;77.56;99355.63;1820637;78;21238;-70
2022/05/21 03:03:40;;;;;;;8.90;4.90;;;;;;;15.44;76.32;99351.98;1820748;78;21088;-69
2022/05/21 03:06:06;;;;;;;9.78;4.95;;;;;;;15.50;76.69;99351.53;1820813;78;21087;-69
2022/05/21 03:11:22;;;;;;;14.28;5.50;;;;;;;15.61;76.63;99352.12;1820578;78;21057;-69
2022/05/21 03:13:48;;;;;;;14.43;4.75;;;;;;;15.67;77.04;99349.88;1820460;78;21097;-70
2022/05/21 03:16:15;;;;;;;9.55;5.08;;;;;;;15.77;77.65;99341.30;1820319;78;21792;-70
2022/05/21 03:18:41;;;;;;;11.00;4.67;;;;;;;15.87;77.01;99337.02;1820997;78;21569;-69
2022/05/21 03:21:08;;;;;;;7.42;4.42;;;;;;;16.00;76.43;99340.98;1820857;78;21062;-68
2022/05/21 03:23:35;;;;;;;7.33;4.97;;;;;;;16.15;77.07;99338.07;1820667;78;21079;-69
2022/05/21 03:26:03;;;;;;;12.07;4.58;;;;;;;16.29;76.47;99341.05;1820646;78;21076;-69
2022/05/21 03:28:30;;;;;;;11.70;5.10;;;;;;;16.43;75.78;99326.74;1820649;78;21056;-71
2022/05/21 03:30:56;;;;;;;11.70;5.05;;;;;;;16.53;75.25;99323.76;1820562;78;21120;-68
2022/05/21 03:33:23;;;;;;;12.75;5.00;;;;;;;16.65;74.51;99332.63;1820826;78;21193;-69
2022/05/21 03:35:49;;;;;;;7.70;4.97;;;;;;;16.80;73.69;99329.34;1820790;78;21029;-71
2022/05/21 03:38:18;;;;;;;14.10;4.70;;;;;;;16.99;72.69;99329.63;1820564;78;21074;-69
2022/05/21 03:40:45;;;;;;;11.12;4.70;;;;;;;17.19;71.02;99340.56;1820055;78;21100;-69
2022/05/21 03:43:12;;;;;;;11.97;4.75;;;;;;;17.44;69.84;99329.33;1812089;79;21084;-70
2022/05/21 03:45:41;;;;;;;12.15;5.35;;;;;;;17.64;68.18;99325.95;1811816;79;21037;-70
2022/05/21 03:48:08;;;;;;;13.43;5.00;;;;;;;17.72;67.38;99327.53;1811964;79;21027;-69
2022/05/21 03:50:36;;;;;;;9.83;5.15;;;;;;;17.74;67.30;99322.94;1811755;79;21236;-68
2022/05/21 03:53:02;;;;;;;7.10;4.90;;;;;;;17.78;66.94;99320.86;1812149;79;21009;-70
2022/05/21 03:55:30;;;;;;;12.13;5.10;;;;;;;17.89;67.48;99318.70;1811975;79;21034;-69
2022/05/21 03:57:57;;;;;;;9.35;4.80;;;;;;;18.14;66.54;99308.25;1811986;79;21049;-70
2022/05/21 04:00:24;;;;;;;13.32;4.90;;;;;;;18.44;66.59;99301.72;1811885;79;21068;-70
2022/05/21 04:02:51;;;;;;;17.17;4.70;;;;;;;18.79;65.31;99298.45;1812070;79;21580;-69
2022/05/21 04:05:18;;;;;;;12.68;4.45;;;;;;;19.16;63.45;99318.00;1811905;79;21052;-70
2022/05/21 04:07:45;;;;;;;11.38;4.85;;;;;;;19.41;62.88;99319.40;1812023;79;21045;-69
2022/05/21 04:10:13;;;;;;;15.65;5.00;;;;;;;19.44;62.18;99307.98;1811841;79;21146;-70
2022/05/21 04:12:40;;;;;;;13.78;4.95;;;;;;;19.40;62.24;99298.54;1811995;79;21029;-70
2022/05/21 04:15:08;;;;;;;10.35;4.80;;;;;;;19.52;62.12;99291.77;1782057;79;21197;-70
2022/05/21 04:17:36;;;;;;;11.97;4.70;;;;;;;19.65;61.73;99288.39;1780080;80;21045;-69
2022/05/21 04:20:06;;;;;;;11.90;4.87;;;;;;;19.87;60.78;99291.35;1780212;80;21042;-69
2022/05/21 04:22:34;;;;;;;10.23;4.22;;;;;;;20.15;59.92;99288.38;1780189;80;21077;-69
2022/05/21 04:25:01;;;;;;;8.13;4.03;;;;;;;20.39;58.43;99291.17;1780580;80;21053;-69
2022/05/21 04:27:27;;;;;;;11.60;4.62;;;;;;;20.38;57.82;99284.11;1780179;80;21329;-71
2022/05/21 04:29:55;;;;;;;13.40;5.00;;;;;;;20.22;56.88;99288.67;1780257;80;21073;-70
2022/05/21 04:32:21;;;;;;;6.17;4.60;;;;;;;19.99;58.41;99294.75;1779848;80;21081;-70
2022/05/21 04:34:48;;;;;;;16.10;4.60;;;;;;;19.78;58.39;99300.19;1779826;80;21526;-70
2022/05/21 04:37:15;;;;;;;9.73;4.55;;;;;;;19.68;59.42;99298.80;1779834;80;21081;-70
2022/05/21 04:39:42;;;;;;;9.20;4.50;;;;;;;19.69;60.25;99296.49;1779929;80;21649;-71
2022/05/21 04:42:09;;;;;;;10.80;4.45;;;;;;;19.76;59.66;99290.99;1774507;80;21128;-71
2022/05/21 04:44:37;;;;;;;11.83;4.50;;;;;;;19.87;59.19;99298.88;1768189;81;21070;-69
2022/05/21 04:47:06;;;;;;;8.05;4.70;;;;;;;20.20;59.67;99299.53;1768317;80;21046;-69
2022/05/21 04:49:34;;;;;;;11.55;4.70;;;;;;;20.61;58.35;99293.58;1768416;80;21015;-71
2022/05/21 04:52:05;;;;;;;11.85;4.65;;;;;;;20.91;57.66;99301.08;1768882;81;21883;-71
2022/05/21 04:54:31;;;;;;;11.38;4.55;;;;;;;21.18;56.60;99294.14;1719466;83;21057;-70
2022/05/21 04:56:58;;;;;;;11.95;5.03;;;;;;;21.30;56.19;99287.14;1768455;81;21262;-70
2022/05/21 04:59:25;;;;;;;10.28;4.60;;;;;;;21.32;55.95;99285.63;1768453;81;21070;-69
2022/05/21 05:01:51;;;;;;;14.53;5.00;;;;;;;21.33;56.00;99281.98;1768567;81;21037;-70
2022/05/21 05:04:18;;;;;;;8.25;5.42;;;;;;;21.32;56.06;99281.62;1768654;80;21930;-70
2022/05/21 05:06:45;;;;;;;10.43;5.30;;;;;;;21.17;55.46;99282.59;1768437;81;21066;-70
2022/05/21 05:09:12;;;;;;;9.13;4.83;;;;;;;21.08;55.53;99273.59;1768669;81;21054;-69
2022/05/21 05:11:39;;;;;;;6.80;4.53;;;;;;;21.07;55.51;99271.92;1768364;81;21018;-70
2022/05/21 05:14:08;;;;;;;9.73;4.92;;;;;;;21.06;55.49;99278.25;1777322;80;21526;-70
2022/05/21 05:16:34;;;;;;;10.85;5.60;;;;;;;21.08;54.67;99268.74;1784621;80;21176;-70
2022/05/21 05:19:01;;;;;;;11.50;5.28;;;;;;;21.14;55.80;99270.34;1784627;80;21013;-70
2022/05/21 05:21:28;;;;;;;9.93;5.47;;;;;;;21.24;54.68;99269.47;1784486;80;21079;-72
2022/05/21 05:23:55;;;;;;;8.88;5.70;;;;;;;21.34;53.57;99264.91;1784797;80;21110;-70
2022/05/21 05:26:22;;;;;;;8.60;5.33;;;;;;;21.40;54.61;99256.33;1784801;80;21526;-70
2022/05/21 05:28:50;;;;;;;8.13;5.42;;;;;;;21.53;54.63;99242.11;1784815;80;21138;-70
2022/05/21 05:31:16;;;;;;;15.40;5.00;;;;;;;21.60;53.57;99245.52;1784639;80;21041;-70
2022/05/21 05:33:43;;;;;;;11.25;5.50;;;;;;;21.80;54.69;99244.41;1784870;80;21009;-70
2022/05/21 05:36:10;;;;;;;13.68;5.70;;;;;;;22.02;53.46;99234.25;1784697;80;20994;-70
2022/05/21 05:38:37;;;;;;;17.17;5.30;;;;;;;22.27;52.97;99230.87;1785050;80;21092;-68
2022/05/21 05:41:07;;;;;;;11.03;5.20;;;;;;;22.41;52.91;99230.31;1784368;80;21428;-70
2022/05/21 05:43:33;;;;;;;13.62;5.20;;;;;;;22.51;52.20;99229.39;1808282;78;21029;-70
2022/05/21 05:46:01;;;;;;;10.08;5.40;;;;;;;22.61;52.04;99226.10;1810891;79;21049;-71
2022/05/21 05:48:29;;;;;;;17.30;5.70;;;;;;;22.71;51.67;99226.86;1810846;79;21081;-70
2022/05/21 05:50:59;;;;;;;10.35;5.45;;;;;;;22.90;51.24;99224.98;1810780;79;21627;-70
2022/05/21 05:53:25;;;;;;;12.75;5.10;;;;;;;23.08;50.11;99233.84;1811177;79;22034;-70
2022/05/21 05:55:53;;;;;;;12.07;5.42;;;;;;;23.24;50.08;99227.22;1810757;79;21073;-69
2022/05/21 06:01:08;;;;;;;14.28;5.28;;;;;;;23.81;47.86;99225.78;1805030;79;21079;-70
2022/05/21 06:03:36;;;;;;;9.08;5.42;;;;;;;23.92;47.23;99221.44;1798965;79;21002;-70
2022/05/21 06:06:04;;;;;;;8.25;5.17;;;;;;;23.95;46.63;99214.41;1798778;79;21923;-72
2022/05/21 06:08:35;;;;;;;15.38;5.72;;;;;;;23.98;48.06;99212.72;1798438;79;21046;-70
2022/05/21 06:11:01;;;;;;;12.60;5.67;;;;;;;24.02;47.72;99212.73;1798956;79;21081;-70
2022/05/21 06:13:28;;;;;;;12.13;5.97;;;;;;;24.05;47.84;99211.56;1801088;79;21054;-72
2022/05/21 06:15:57;;;;;;;16.48;5.83;;;;;;;24.12;47.83;99209.05;1807859;79;21120;-70
2022/05/21 06:18:23;;;;;;;11.22;5.75;;;;;;;24.14;48.12;99205.70;1808009;79;21314;-71
2022/05/21 06:20:50;;;;;;;14.30;6.97;;;;;;;24.08;48.39;99208.02;1808092;79;21045;-71
2022/05/21 06:23:19;;;;;;;16.48;6.80;;;;;;;23.98;48.35;99208.69;1808056;79;21066;-70
2022/05/21 06:25:47;;;;;;;13.60;6.40;;;;;;;24.01;48.15;99208.34;1807964;79;21026;-69
2022/05/21 06:28:14;;;;;;;12.80;6.03;;;;;;;24.15;48.33;99203.33;1807999;79;21013;-69
2022/05/21 06:30:41;;;;;;;9.68;5.55;;;;;;;24.15;47.61;99204.67;1807856;79;21255;-71
2022/05/21 06:33:24;;;;;;;11.80;5.62;;;;;;;24.03;47.07;99200.95;1807841;79;21506;-70
2022/05/21 06:36:05;;;;;;;14.20;6.62;;;;;;;24.00;47.97;99201.30;1808048;79;21057;-70
2022/05/21 06:38:34;;;;;;;12.15;6.87;;;;;;;24.10;46.97;99203.00;1807989;79;21018;-71
2022/05/21 06:41:02;;;;;;;14.78;7.42;;;;;;;24.12;46.53;99195.09;1807966;79;21542;-69
2022/05/21 06:43:29;;;;;;;20.43;7.60;;;;;;;24.15;47.56;99198.78;1812001;79;21182;-70
2022/05/21 06:45:57;;;;;;;19.90;7.03;;;;;;;24.11;48.21;99203.31;1813473;78;21109;-70
2022/05/21 06:48:23;;;;;;;13.03;7.17;;;;;;;24.08;48.03;99195.91;1813465;78;21049;-69
2022/05/21 06:50:53;;;;;;;14.18;7.12;;;;;;;24.12;47.93;99196.95;1741356;82;21050;-69
2022/05/21 06:53:21;;;;;;;11.90;6.65;;;;;;;24.21;47.85;99187.88;1741510;82;21062;-70
2022/05/21 06:56:45;;;;;;;11.70;6.47;;;;;;;24.49;47.59;99190.59;1795790;79;22697;-70
2022/05/21 06:59:13;;;;;;;12.82;6.47;;;;;;;24.67;46.13;99186.88;1756362;81;20934;-70
2022/05/21 07:01:40;;;;;;;9.90;5.78;;;;;;;24.81;45.64;99186.17;1756343;81;21744;-71
2022/05/21 07:04:10;;;;;;;16.40;6.10;;;;;;;25.05;44.96;99185.77;1756425;81;20973;-72
2022/05/21 07:09:21;;;;;;;9.25;5.87;;;;;;;25.64;43.74;99179.50;1790582;80;20980;-69
2022/05/21 07:11:51;;;;;;;11.93;6.05;;;;;;;25.90;43.90;99179.70;1790551;80;21534;-70
2022/05/21 07:14:19;;;;;;;14.10;5.72;;;;;;;26.04;43.79;99181.62;1790789;80;21251;-69
2022/05/21 07:16:48;;;;;;;12.30;5.58;;;;;;;26.08;43.57;99176.73;1790538;80;21023;-70
2022/05/21 07:19:16;;;;;;;17.17;5.62;;;;;;;26.13;43.28;99169.75;1790742;80;20988;-71
2022/05/21 07:21:42;;;;;;;10.48;5.65;;;;;;;26.09;43.77;99167.11;1790600;80;21052;-72
2022/05/21 07:24:09;;;;;;;13.48;5.80;;;;;;;26.14;43.22;99166.57;1790999;80;21064;-70
2022/05/21 07:26:36;;;;;;;12.00;5.35;;;;;;;26.28;42.39;99171.17;1790671;80;22257;-70
2022/05/21 07:29:03;;;;;;;7.87;4.70;;;;;;;26.32;41.86;99166.27;1790814;80;21542;-72
2022/05/21 07:31:31;;;;;;;12.00;4.97;;;;;;;26.30;41.43;99160.20;1790535;80;21028;-71
2022/05/21 07:33:57;;;;;;;12.95;5.47;;;;;;;26.23;41.01;99159.26;1790469;80;21107;-70
2022/05/21 07:36:25;;;;;;;13.60;5.20;;;;;;;26.07;41.97;99162.92;1790560;80;21310;-72
2022/05/21 07:38:51;;;;;;;11.12;5.03;;;;;;;26.00;41.64;99150.66;1790322;80;21278;-70
2022/05/21 07:41:18;;;;;;;9.03;5.05;;;;;;;26.01;41.94;99155.02;1790507;80;21476;-70
2022/05/21 07:43:45;;;;;;;10.95;4.90;;;;;;;26.06;42.77;99147.22;1790643;80;21524;-70
2022/05/21 07:46:11;;;;;;;6.92;4.30;;;;;;;26.10;42.23;99140.45;1790476;80;21091;-71
2022/05/21 07:48:38;;;;;;;21.00;4.78;;;;;;;26.14;41.56;99135.03;1790787;78;20981;-70
2022/05/21 07:51:06;;;;;;;15.10;5.20;;;;;;;26.30;42.24;99131.87;1790734;80;21125;-70
2022/05/21 07:53:37;;;;;;;8.33;4.50;;;;;;;26.53;41.76;99128.60;1791083;80;21317;-71
2022/05/21 07:56:04;;;;;;;9.95;5.03;;;;;;;26.71;41.60;99124.72;1783871;80;21036;-69
2022/05/21 07:58:32;;;;;;;10.25;4.90;;;;;;;26.75;40.98;99121.98;1779628;80;21581;-70
2022/05/21 08:00:59;;;;;;;14.83;5.17;;;;;;;26.71;41.09;99120.67;1779547;80;21053;-70
2022/05/21 08:03:26;;;;;;;13.13;4.58;;;;;;;26.57;41.16;99119.63;1779702;80;21191;-71
2022/05/21 08:05:55;;;;;;;8.68;4.37;;;;;;;26.44;41.35;99114.86;1779426;79;21044;-71
2022/05/21 08:08:24;;;;;;;11.12;4.72;;;;;;;26.22;42.18;99113.03;1779151;80;21024;-70
2022/05/21 08:10:56;;;;;;;10.98;4.78;;;;;;;25.85;43.03;99109.27;1778873;80;21028;-71
2022/05/21 08:13:20;;;;;;;12.37;4.55;;;;;;;25.73;43.11;99110.19;1772562;80;21036;-71
2022/05/21 08:15:46;;;;;;;10.40;4.62;;;;;;;25.74;42.87;99101.93;1747948;82;22142;-70
2022/05/21 08:18:13;;;;;;;11.45;5.20;;;;;;;25.85;42.53;99093.08;1747879;82;21104;-70
2022/05/21 08:20:40;;;;;;;8.83;4.53;;;;;;;26.09;42.68;99094.27;1748191;82;21041;-72
2022/05/21 08:28:38;;;;;;;13.10;4.33;;;;;;;26.92;39.50;99090.23;1748213;82;22024;-71
2022/05/21 08:31:04;;;;;;;9.00;4.75;;;;;;;26.93;40.25;99092.73;1748008;82;21032;-70
2022/05/21 08:33:31;;;;;;;10.85;4.50;;;;;;;26.64;40.59;99100.35;1748430;82;21033;-73
2022/05/21 08:35:58;;;;;;;8.60;4.78;;;;;;;26.38;41.43;99095.34;1748030;82;21029;-70
2022/05/21 08:38:26;;;;;;;9.13;4.28;;;;;;;26.33;41.18;99099.11;1748263;82;21005;-70
2022/05/21 08:40:59;;;;;;;8.15;4.30;;;;;;;26.31;40.98;99101.14;1748113;82;21190;-71
2022/05/21 08:44:08;;;;;;;9.15;4.55;;;;;;;26.31;41.10;99099.80;1748211;82;21056;-70
2022/05/21 08:47:00;;;;;;;13.28;4.42;;;;;;;26.34;40.85;99098.07;1747855;82;21699;-70
2022/05/21 08:49:39;;;;;;;8.63;4.85;;;;;;;26.39;39.33;99103.78;1748184;82;21040;-70
2022/05/21 08:52:28;;;;;;;8.60;4.65;;;;;;;26.22;40.45;99096.84;1748128;82;21100;-71
2022/05/21 08:54:57;;;;;;;10.08;4.85;;;;;;;26.01;40.61;99094.33;1748209;82;21770;-71
2022/05/21 08:57:44;;;;;;;9.50;4.60;;;;;;;26.02;41.31;99090.62;1747868;82;21017;-69
2022/05/21 09:00:24;;;;;;;9.85;4.60;;;;;;;25.98;41.06;99093.86;1748109;82;21243;-72
2022/05/21 09:02:54;;;;;;;6.22;4.42;;;;;;;25.96;40.37;99085.94;1747823;82;21077;-70
2022/05/21 09:05:22;;;;;;;7.85;4.45;;;;;;;26.01;40.51;99086.23;1748056;82;21502;-70
2022/05/21 09:08:09;;;;;;;9.50;4.42;;;;;;;26.05;40.39;99084.85;1747857;82;21236;-70
2022/05/21 09:11:04;;;;;;;7.72;4.53;;;;;;;26.04;40.62;99083.16;1747796;82;21001;-70
2022/05/21 09:13:46;;;;;;;9.25;5.05;;;;;;;25.83;41.87;99084.33;1746162;82;21101;-69
2022/05/21 09:18:57;;;;;;;9.30;4.37;;;;;;;25.19;42.87;99082.73;1742289;82;21125;-71
2022/05/21 09:21:26;;;;;;;11.75;4.75;;;;;;;25.20;41.92;99080.36;1742286;82;21128;-69
2022/05/21 09:23:58;;;;;;;9.58;4.47;;;;;;;25.23;41.47;99079.16;1742082;82;21081;-70
2022/05/21 09:26:49;;;;;;;10.58;4.72;;;;;;;25.19;41.04;99073.78;1742421;82;21077;-70
2022/05/21 09:29:21;;;;;;;12.75;5.30;;;;;;;25.22;41.75;99064.86;1742482;82;21510;-71
2022/05/21 09:31:48;;;;;;;7.92;4.53;;;;;;;25.41;41.70;99058.17;1713146;82;21026;-70
2022/05/21 09:34:29;;;;;;;9.05;4.12;;;;;;;25.66;41.55;99060.19;1742013;82;21242;-70
2022/05/21 09:36:58;;;;;;;12.25;4.70;;;;;;;25.78;41.45;99058.42;1742176;82;21023;-70
2022/05/21 09:39:34;;;;;;;14.53;4.40;;;;;;;25.78;41.25;99055.72;1742014;82;20994;-71
2022/05/21 09:45:23;;;;;;;12.82;4.58;;;;;;;25.82;39.69;99057.05;1742105;82;21057;-71
2022/05/21 09:48:07;;;;;;;;;;;;;;;25.61;40.23;99072.02;1744770;82;21550;-70
2022/05/21 09:50:53;;;;;;;10.30;4.00;;;;;;;25.36;41.12;99078.59;1742218;82;20186;-73
2022/05/21 09:53:38;;;;;;;35.13;6.78;;;;;;;25.17;41.92;99074.44;1741930;82;21046;-70
2022/05/21 09:56:24;;;;;;;12.73;4.70;;;;;;;24.98;42.75;99071.67;1744252;81;21009;-70
2022/05/21 09:58:54;;;;;;;9.63;4.70;;;;;;;24.70;42.89;99072.12;1748837;81;21097;-70
2022/05/21 10:01:44;;;;;;;10.30;4.78;;;;;;;24.47;43.00;99078.74;1746192;82;21243;-71
2022/05/21 10:04:27;;;;;;;7.12;4.62;;;;;;;24.27;44.66;99091.20;1748774;82;21062;-71
2022/05/21 10:13:20;;;;;;;17.15;5.47;;;;;;;22.45;60.86;99087.81;1754607;80;21049;-72
2022/05/21 10:15:57;;;;;;;10.65;5.22;;;;;;;21.83;65.20;99076.60;1779512;80;21605;-71
2022/05/21 10:18:34;;;;;;;9.00;4.90;;;;;;;21.44;67.86;99056.86;1779713;80;21020;-71
2022/05/21 10:21:09;;;;;;;12.10;5.22;;;;;;;21.11;73.28;99052.95;1753454;80;21052;-70
2022/05/21 10:23:46;;;;;;;11.50;5.80;;;;;;;20.86;77.03;99066.53;1748583;80;21038;-71
2022/05/21 10:26:41;;;;;;;12.33;5.78;;;;;;;20.56;82.91;99069.83;1779845;80;21064;-70
2022/05/21 10:29:26;;;;;;;10.10;5.55;;;;;;;20.24;83.95;99079.02;1779830;80;21195;-72
2022/05/21 10:32:33;;;;;;;8.60;5.90;;;;;;;19.86;84.23;99080.78;1779309;80;21025;-71
2022/05/21 10:35:53;;;;;;;12.18;6.78;;;;;;;19.59;88.80;99075.27;1779433;80;21068;-71
2022/05/21 10:38:41;;;;;;;10.40;6.20;;;;;;;19.36;95.45;99067.52;1779490;80;21127;-72
2022/05/21 10:41:31;;;;;;;9.15;5.78;;;;;;;19.22;95.62;99050.58;1779778;80;21068;-70
2022/05/21 10:44:12;;;;;;;10.08;7.33;;;;;;;19.07;95.21;99037.64;1757807;80;21820;-71
2022/05/21 10:47:12;;;;;;;13.68;6.90;;;;;;;18.99;98.11;99048.14;1779430;80;21044;-70
2022/05/21 10:50:08;;;;;;;12.53;7.37;;;;;;;18.93;100.00;99045.17;1779475;80;22194;-71
2022/05/21 10:53:20;;;;;;;13.70;7.97;;;;;;;18.84;100.00;99049.49;1779362;80;21096;-71
2022/05/21 10:56:13;;;;;;;18.32;8.38;;;;;;;18.75;100.00;99040.94;1779404;80;21583;-71
2022/05/21 10:59:36;;;;;;;18.70;8.33;;;;;;;18.68;100.00;99042.46;1784496;80;21186;-71
2022/05/21 11:02:41;;;;;;;17.40;8.38;;;;;;;18.64;100.00;99029.41;1784531;80;21036;-71
2022/05/21 11:05:28;;;;;;;10.70;8.30;;;;;;;18.64;100.00;99034.74;1784782;80;21111;-71
2022/05/21 11:08:29;;;;;;;17.65;8.33;;;;;;;18.61;100.00;99036.36;1784209;80;20985;-71
2022/05/21 11:11:19;;;;;;;15.00;8.35;;;;;;;18.58;100.00;99032.61;1784567;80;21099;-72
2022/05/21 11:14:02;;;;;;;11.55;7.28;;;;;;;18.50;100.00;99012.45;1772310;80;21032;-72
2022/05/21 11:16:54;;;;;;;14.87;8.73;;;;;;;18.40;100.00;99015.09;1753361;81;21047;-70
2022/05/21 11:19:52;;;;;;;16.80;9.63;;;;;;;18.30;100.00;99010.19;1753393;81;21044;-70
2022/05/21 11:22:26;;;;;;;18.27;8.50;;;;;;;18.22;100.00;99005.53;1753151;81;21021;-71
2022/05/21 11:25:25;;;;;;;13.75;8.20;;;;;;;18.22;100.00;99008.20;1753600;81;21045;-71
2022/05/21 11:28:37;;;;;;;15.48;8.10;;;;;;;18.17;100.00;98989.08;1753411;81;21239;-69
2022/05/21 11:31:17;;;;;;;12.73;9.23;;;;;;;18.19;100.00;98983.62;1753516;81;21546;-70
2022/05/21 11:39:20;;;;;;;13.65;7.67;;;;;;;18.32;100.00;98978.08;1753463;81;21517;-71
2022/05/21 11:42:00;;;;;;;9.75;7.92;;;;;;;18.31;100.00;98984.38;1753689;81;21123;-71
2022/05/21 11:45:02;;;;;;;9.98;7.83;;;;;;;18.27;100.00;98979.81;1753578;81;21621;-69
2022/05/21 11:47:43;;;;;;;14.30;8.63;;;;;;;18.26;100.00;98970.61;1753352;81;21028;-70
2022/05/21 11:50:17;;;;;;;13.68;9.23;;;;;;;18.28;100.00;98958.00;1753667;81;21493;-70
2022/05/21 11:53:09;;;;;;;14.47;8.75;;;;;;;18.35;100.00;98941.82;1753480;81;21083;-71
2022/05/21 11:56:02;;;;;;;15.75;9.43;;;;;;;18.42;100.00;98931.80;1750913;81;21199;-71
2022/05/21 11:59:02;;;;;;;12.50;9.20;;;;;;;18.50;100.00;98940.47;1753770;81;21623;-71
2022/05/21 12:01:43;;;;;;;17.02;9.95;;;;;;;18.50;100.00;98932.48;1745141;81;21037;-71
2022/05/21 12:04:43;;;;;;;15.20;8.78;;;;;;;18.47;100.00;98944.72;1754087;81;21281;-70
2022/05/21 12:07:17;;;;;;;11.80;8.43;;;;;;;18.45;100.00;98952.05;1753658;81;22469;-70
2022/05/21 12:10:06;;;;;;;13.98;8.68;;;;;;;18.36;100.00;98948.86;1750552;81;22018;-70
2022/05/21 12:12:34;;;;;;;11.40;9.63;;;;;;;18.29;100.00;98941.02;1753462;81;21009;-70
2022/05/21 12:15:16;;;;;;;13.40;10.15;;;;;;;18.26;100.00;98927.98;1781855;80;21079;-70
2022/05/21 12:17:54;;;;;;;22.73;12.18;;;;;;;18.26;100.00;98922.15;1784847;80;21489;-71
2022/05/21 12:20:48;;;;;;;16.07;11.65;;;;;;;18.24;100.00;98900.98;1784910;80;21079;-71
2022/05/21 12:23:33;;;;;;;19.02;12.03;;;;;;;18.34;100.00;98886.84;1784346;80;21153;-71
2022/05/21 12:26:05;;;;;;;21.42;14.50;;;;;;;18.37;100.00;98881.23;1784594;80;21009;-71
2022/05/21 12:28:41;;;;;;;17.82;13.48;;;;;;;18.22;100.00;98871.43;1784752;80;21033;-71